Canton, Connecticut
Current Conditions -  °F | °C
As of 8:51 AM on Monday 20 Oct 2014 (Local Time) from KBDL Reporting Station
Few Clouds Few Clouds  
Wind Chill: 37°   Ceiling: Unl
Heat Index: 42°   Visibility: 10mi
Dew Point: 30°   Wind: 8mph
Humidity: 62%   Direction: 210°SSW
Pressure: 30.07"   Gusts: NA
Location:  41.82°N, 72.89°W
Report Text: KBDL 201251Z 21007KT 10SM FEW140 FEW250 06/M01 A3007 RMK AO2 SLP185 T00561011
Loading
Personal Weather Stations






























Interactive Weather Map
Tropical Storm Tracking
New forecast layout! Learn more

10-Day Weather Forecast

Advertisements
Track Severe Weather on mobile